Time;durP1;ratioP1;P1;durP2;ratioP2;P2;SDS_P1;SDS_P2;PMS_P1;PMS_P2;Temp;Humidity;BMP_temperature;BMP_pressure;BME280_temperature;BME280_humidity;BME280_pressure;Samples;Min_cycle;Max_cycle;Signal;HPM_P1;HPM_P2
2022/09/21 00:01:06;;;;;;;8.15;6.03;;;12.10;99.90;;;;;;5082940;28;20261;-87
2022/09/21 00:03:57;;;;;;;7.47;6.05;;;12.10;99.90;;;;;;5081570;28;20231;-87
2022/09/21 00:06:45;;;;;;;9.18;5.90;;;12.10;99.90;;;;;;5082021;28;20708;-87
2022/09/21 00:09:35;;;;;;;10.40;5.70;;;12.20;99.90;;;;;;5085952;28;20705;-87
2022/09/21 00:12:24;;;;;;;12.52;6.32;;;12.20;99.90;;;;;;5084808;28;20231;-87
2022/09/21 00:15:12;;;;;;;7.45;5.50;;;12.20;99.90;;;;;;5086603;28;20219;-89
2022/09/21 00:18:02;;;;;;;9.75;5.82;;;12.20;99.90;;;;;;5088984;28;20225;-89
2022/09/21 00:20:51;;;;;;;10.60;6.43;;;12.20;99.90;;;;;;5084112;28;20215;-89
2022/09/21 00:23:40;;;;;;;8.52;6.10;;;12.10;99.90;;;;;;5082354;28;20312;-88
2022/09/21 00:26:30;;;;;;;10.18;6.90;;;12.10;99.90;;;;;;5085547;28;20223;-88
2022/09/21 00:29:19;;;;;;;8.95;6.60;;;12.10;99.90;;;;;;5069655;28;20230;-88
2022/09/21 00:32:07;;;;;;;10.50;7.00;;;12.20;99.90;;;;;;5082308;28;20664;-87
2022/09/21 00:34:56;;;;;;;8.07;6.35;;;12.20;99.90;;;;;;5082630;28;20228;-86
2022/09/21 00:37:45;;;;;;;8.63;6.43;;;12.20;99.90;;;;;;5066523;28;20219;-87
2022/09/21 00:40:33;;;;;;;10.88;7.40;;;12.20;99.90;;;;;;5083954;28;20392;-87
2022/09/21 00:43:23;;;;;;;11.98;7.80;;;12.10;99.90;;;;;;5084598;28;20397;-88
2022/09/21 00:46:17;;;;;;;8.88;7.30;;;12.10;99.90;;;;;;5079901;28;20219;-87
2022/09/21 00:49:05;;;;;;;13.02;8.35;;;12.20;99.90;;;;;;5081652;28;20722;-87
2022/09/21 00:51:55;;;;;;;13.35;8.15;;;12.20;99.90;;;;;;5080479;28;20223;-87
2022/09/21 00:54:49;;;;;;;15.73;10.45;;;12.20;99.90;;;;;;5081647;28;20260;-86
2022/09/21 00:57:38;;;;;;;16.38;10.95;;;12.20;99.90;;;;;;5082576;28;20240;-87
2022/09/21 01:00:28;;;;;;;17.27;12.20;;;12.20;99.90;;;;;;5066170;28;20298;-88
2022/09/21 01:03:17;;;;;;;16.98;11.98;;;12.30;99.90;;;;;;5087012;28;20361;-89
2022/09/21 01:06:06;;;;;;;19.80;12.77;;;12.20;99.90;;;;;;5084304;28;20215;-88
2022/09/21 01:08:57;;;;;;;17.58;12.65;;;12.30;99.90;;;;;;5082390;28;20309;-88
2022/09/21 01:11:55;;;;;;;16.85;12.45;;;12.20;99.90;;;;;;5085977;28;20219;-87
2022/09/21 01:15:03;;;;;;;14.90;12.20;;;12.30;99.90;;;;;;5083093;28;20211;-88
2022/09/21 01:18:01;;;;;;;15.65;11.18;;;12.20;99.90;;;;;;5082563;28;20721;-86
2022/09/21 01:21:15;;;;;;;14.40;11.13;;;12.20;99.90;;;;;;5079243;28;20288;-86
2022/09/21 01:24:36;;;;;;;13.13;10.55;;;12.30;99.90;;;;;;5081718;28;20219;-87
2022/09/21 01:27:43;;;;;;;14.93;11.05;;;12.30;99.90;;;;;;5039278;28;20288;-87
2022/09/21 01:30:36;;;;;;;13.93;10.77;;;12.30;99.90;;;;;;5069718;28;20223;-86
2022/09/21 01:33:29;;;;;;;15.63;11.55;;;12.30;99.90;;;;;;5081511;28;20694;-87
2022/09/21 01:36:23;;;;;;;14.68;11.70;;;12.30;99.90;;;;;;5075422;28;20223;-87
2022/09/21 01:39:16;;;;;;;13.15;10.65;;;12.30;99.90;;;;;;5080103;28;20307;-87
2022/09/21 01:42:07;;;;;;;13.50;11.65;;;12.30;99.90;;;;;;5081756;28;20219;-86
2022/09/21 01:45:00;;;;;;;13.80;11.05;;;12.20;99.90;;;;;;5087212;28;20732;-89
2022/09/21 01:47:51;;;;;;;15.95;12.10;;;12.20;99.90;;;;;;5086241;28;20227;-89
2022/09/21 01:50:46;;;;;;;14.98;11.50;;;12.30;99.90;;;;;;5086163;28;20246;-89
2022/09/21 01:53:39;;;;;;;15.15;12.23;;;12.30;99.90;;;;;;5083250;28;20220;-88
2022/09/21 01:56:33;;;;;;;17.15;12.73;;;12.30;99.90;;;;;;5086279;28;20223;-89
2022/09/21 01:59:26;;;;;;;18.00;12.65;;;12.40;99.90;;;;;;5084745;28;20226;-88
2022/09/21 02:02:20;;;;;;;17.05;12.10;;;12.30;99.90;;;;;;5086008;28;20306;-89
2022/09/21 02:05:12;;;;;;;14.40;11.55;;;12.30;99.90;;;;;;5085325;28;20221;-88
2022/09/21 02:08:01;;;;;;;12.90;10.98;;;12.40;99.90;;;;;;5085525;28;20208;-88
2022/09/21 02:10:52;;;;;;;14.13;11.05;;;12.40;99.90;;;;;;5084937;28;20537;-90
2022/09/21 02:13:45;;;;;;;13.30;10.95;;;12.30;99.90;;;;;;5083173;28;20753;-88
2022/09/21 02:16:39;;;;;;;15.13;11.40;;;12.30;99.90;;;;;;5085045;28;20220;-88
2022/09/21 02:19:36;;;;;;;12.98;10.80;;;12.40;99.90;;;;;;5086852;28;20236;-88
2022/09/21 02:22:36;;;;;;;12.32;10.55;;;12.50;99.90;;;;;;5083119;28;20230;-88
2022/09/21 02:25:33;;;;;;;16.02;10.85;;;12.50;99.90;;;;;;5080394;28;20215;-87
2022/09/21 02:28:33;;;;;;;15.57;10.93;;;12.40;99.90;;;;;;5084153;28;20388;-87
2022/09/21 02:31:32;;;;;;;12.20;9.90;;;12.40;99.90;;;;;;5082331;28;20299;-87
2022/09/21 02:34:26;;;;;;;14.30;10.75;;;12.40;99.90;;;;;;5082030;28;20224;-87
2022/09/21 02:37:21;;;;;;;12.55;10.93;;;12.40;99.90;;;;;;5078721;28;20219;-87
2022/09/21 02:40:22;;;;;;;15.60;10.82;;;12.40;99.90;;;;;;5057127;28;20215;-89
2022/09/21 02:43:19;;;;;;;13.82;11.18;;;12.40;99.90;;;;;;5082616;28;20261;-88
2022/09/21 02:46:11;;;;;;;13.73;11.75;;;12.50;99.90;;;;;;5079998;28;20310;-88
2022/09/21 02:49:08;;;;;;;14.02;11.45;;;12.40;99.90;;;;;;5085105;28;20215;-90
2022/09/21 02:52:00;;;;;;;15.27;12.05;;;12.40;99.90;;;;;;5082899;28;21122;-91
2022/09/21 02:54:52;;;;;;;16.35;12.20;;;12.30;99.90;;;;;;5088361;28;20269;-91
2022/09/21 02:57:42;;;;;;;16.30;12.32;;;12.40;99.90;;;;;;5088405;28;20419;-90
2022/09/21 03:00:31;;;;;;;16.63;12.05;;;12.40;99.90;;;;;;5087644;28;20700;-89
2022/09/21 03:03:22;;;;;;;14.95;11.85;;;12.30;99.90;;;;;;5072215;28;20714;-89
2022/09/21 03:06:10;;;;;;;14.38;11.80;;;12.40;99.90;;;;;;5086637;28;20223;-89
2022/09/21 03:08:59;;;;;;;20.55;12.95;;;12.30;99.90;;;;;;5072032;28;20284;-87
2022/09/21 03:11:48;;;;;;;17.63;13.05;;;12.40;99.90;;;;;;5093733;28;20226;-88
2022/09/21 03:14:38;;;;;;;17.08;13.20;;;12.30;99.90;;;;;;5097414;28;20692;-87
2022/09/21 03:17:27;;;;;;;18.80;13.73;;;12.30;99.90;;;;;;5099981;28;20264;-88
2022/09/21 03:20:15;;;;;;;19.63;14.38;;;12.20;99.90;;;;;;5097452;28;20271;-87
2022/09/21 03:23:04;;;;;;;19.35;14.02;;;12.30;99.90;;;;;;5094930;28;20257;-90
2022/09/21 03:25:53;;;;;;;17.48;13.75;;;12.30;99.90;;;;;;5089804;28;20215;-90
2022/09/21 03:28:42;;;;;;;20.52;14.30;;;12.30;99.90;;;;;;5088196;28;20342;-87
2022/09/21 03:31:32;;;;;;;19.95;13.88;;;12.40;99.90;;;;;;5092723;28;20310;-88
2022/09/21 03:34:22;;;;;;;19.40;14.23;;;12.30;99.90;;;;;;5075456;28;20227;-90
2022/09/21 03:37:11;;;;;;;25.15;14.50;;;12.40;99.90;;;;;;5088446;28;20235;-88
2022/09/21 03:39:59;;;;;;;21.58;13.77;;;12.40;99.90;;;;;;5088616;28;20212;-88
2022/09/21 03:42:48;;;;;;;20.50;14.20;;;12.40;99.90;;;;;;5074659;28;20338;-87
2022/09/21 03:45:39;;;;;;;18.25;13.27;;;12.30;99.90;;;;;;5088180;28;20228;-85
2022/09/21 03:48:31;;;;;;;21.83;13.63;;;12.30;99.90;;;;;;5087985;28;20292;-86
2022/09/21 03:51:19;;;;;;;19.85;14.55;;;12.30;99.90;;;;;;5085982;28;20228;-86
2022/09/21 03:54:08;;;;;;;17.80;13.82;;;12.40;99.90;;;;;;5089204;28;20302;-88
2022/09/21 03:56:56;;;;;;;18.58;13.50;;;12.40;99.90;;;;;;5095669;28;20411;-88
2022/09/21 03:59:44;;;;;;;18.33;14.27;;;12.40;99.90;;;;;;5086635;28;20223;-86
2022/09/21 04:02:33;;;;;;;19.35;13.70;;;12.40;99.90;;;;;;5088070;28;20223;-86
2022/09/21 04:05:23;;;;;;;21.85;13.65;;;12.50;99.90;;;;;;5086664;28;20223;-86
2022/09/21 04:08:12;;;;;;;19.40;13.45;;;12.50;99.90;;;;;;5086879;28;20326;-86
2022/09/21 04:11:01;;;;;;;14.93;12.57;;;12.40;99.90;;;;;;5089406;28;20259;-87
2022/09/21 04:13:51;;;;;;;16.98;12.50;;;12.40;99.90;;;;;;5086132;28;20235;-86
2022/09/21 04:16:39;;;;;;;18.17;12.85;;;12.30;99.90;;;;;;5087616;28;20543;-87
2022/09/21 04:19:28;;;;;;;22.38;12.02;;;12.40;99.90;;;;;;5075490;28;20310;-86
2022/09/21 04:22:17;;;;;;;17.42;12.02;;;12.40;99.90;;;;;;5088348;28;20220;-87
2022/09/21 04:25:07;;;;;;;15.88;11.68;;;12.40;99.90;;;;;;5076188;28;20271;-85
2022/09/21 04:27:55;;;;;;;14.25;11.05;;;12.40;99.90;;;;;;5071431;28;20305;-87
2022/09/21 04:30:44;;;;;;;13.45;10.32;;;12.50;99.90;;;;;;5087258;28;20231;-87
2022/09/21 04:33:33;;;;;;;13.13;10.45;;;12.50;99.90;;;;;;5089260;28;20720;-84
2022/09/21 04:36:22;;;;;;;14.73;9.93;;;12.50;99.90;;;;;;5081323;28;20598;-85
2022/09/21 04:39:12;;;;;;;13.25;9.60;;;12.60;99.90;;;;;;5083124;28;20219;-85
2022/09/21 04:42:01;;;;;;;14.65;11.05;;;12.60;99.90;;;;;;5081419;28;20819;-85
2022/09/21 04:44:50;;;;;;;16.20;10.13;;;12.50;99.90;;;;;;5080186;28;20232;-83
2022/09/21 04:47:38;;;;;;;12.48;10.18;;;12.60;99.90;;;;;;5078676;28;20269;-82
2022/09/21 04:50:27;;;;;;;10.45;8.95;;;12.60;99.90;;;;;;5061112;28;20260;-82
2022/09/21 04:53:23;;;;;;;12.82;9.38;;;12.40;99.90;;;;;;5076031;28;20216;-82
2022/09/21 04:56:15;;;;;;;10.25;9.15;;;12.50;99.90;;;;;;5077411;28;20287;-84
2022/09/21 04:59:04;;;;;;;11.68;8.93;;;12.60;99.90;;;;;;5078014;28;20255;-82
2022/09/21 05:01:52;;;;;;;10.55;8.57;;;12.60;99.90;;;;;;5058958;28;20252;-81
2022/09/21 05:04:41;;;;;;;13.20;9.18;;;12.60;99.90;;;;;;5076716;28;21870;-82
2022/09/21 05:07:29;;;;;;;12.02;9.15;;;12.70;99.90;;;;;;5079166;28;20231;-82
2022/09/21 05:10:18;;;;;;;13.77;8.80;;;12.60;99.90;;;;;;5078174;28;20715;-83
2022/09/21 05:13:08;;;;;;;10.48;8.15;;;12.60;99.90;;;;;;5063821;28;20226;-83
2022/09/21 05:15:56;;;;;;;10.35;8.70;;;12.70;99.90;;;;;;5074726;28;20362;-80
2022/09/21 05:18:45;;;;;;;10.30;8.38;;;12.70;99.90;;;;;;5073617;28;20765;-79
2022/09/21 05:21:35;;;;;;;9.98;8.27;;;12.70;99.90;;;;;;5062841;28;20262;-79
2022/09/21 05:24:23;;;;;;;11.55;9.13;;;12.70;99.90;;;;;;5077117;28;20990;-80
2022/09/21 05:27:12;;;;;;;12.82;7.85;;;12.80;99.90;;;;;;5077633;28;20743;-81
2022/09/21 05:30:04;;;;;;;15.02;8.00;;;12.70;99.90;;;;;;5076735;28;20234;-77
2022/09/21 05:33:02;;;;;;;9.82;7.95;;;12.80;99.90;;;;;;5055897;28;20219;-77
2022/09/21 05:36:01;;;;;;;9.55;7.32;;;12.80;99.90;;;;;;5072519;28;20562;-78
2022/09/21 05:38:50;;;;;;;12.38;7.65;;;12.80;99.90;;;;;;5079109;28;20307;-81
2022/09/21 05:41:39;;;;;;;9.70;7.32;;;12.80;99.90;;;;;;5077829;28;20248;-80
2022/09/21 05:44:28;;;;;;;10.48;7.40;;;12.80;99.90;;;;;;5063052;28;20323;-78
2022/09/21 05:47:25;;;;;;;11.15;7.50;;;12.80;99.90;;;;;;5072334;28;20380;-77
2022/09/21 05:50:28;;;;;;;8.43;7.55;;;12.70;99.90;;;;;;5064984;28;20284;-78
2022/09/21 05:53:31;;;;;;;9.48;6.80;;;12.90;99.90;;;;;;5069046;28;20554;-78
2022/09/21 05:56:32;;;;;;;10.30;7.47;;;12.90;99.90;;;;;;5073588;28;20230;-78
2022/09/21 05:59:40;;;;;;;10.13;7.28;;;13.00;99.90;;;;;;5068670;28;20214;-79
2022/09/21 06:02:55;;;;;;;9.65;6.88;;;13.00;99.90;;;;;;5075379;28;20257;-79
2022/09/21 06:05:44;;;;;;;11.27;6.80;;;13.00;99.90;;;;;;5074688;28;20227;-79
2022/09/21 06:08:32;;;;;;;9.43;6.40;;;13.00;99.90;;;;;;5077360;28;20267;-79
2022/09/21 06:11:21;;;;;;;8.63;7.28;;;13.10;99.90;;;;;;5071921;28;20228;-78
2022/09/21 06:14:09;;;;;;;8.30;6.88;;;13.10;99.90;;;;;;5073883;28;20348;-79
2022/09/21 06:17:08;;;;;;;7.93;7.05;;;13.10;99.90;;;;;;5076520;28;21122;-79
2022/09/21 06:19:58;;;;;;;11.55;6.80;;;13.10;99.90;;;;;;5073120;28;20277;-79
2022/09/21 06:22:47;;;;;;;8.02;6.63;;;13.10;99.90;;;;;;5062551;28;20226;-79
2022/09/21 06:25:36;;;;;;;9.93;6.85;;;13.20;99.90;;;;;;5074415;28;20368;-79
2022/09/21 06:28:25;;;;;;;9.98;6.63;;;13.20;99.90;;;;;;5060379;28;20223;-79
2022/09/21 06:31:13;;;;;;;5.85;5.10;;;13.10;99.90;;;;;;5072874;28;20827;-81
2022/09/21 06:34:02;;;;;;;6.80;5.05;;;13.00;99.90;;;;;;5074907;28;20793;-85
2022/09/21 06:36:52;;;;;;;8.07;5.60;;;13.00;99.90;;;;;;5059170;28;20405;-84
2022/09/21 06:39:40;;;;;;;8.70;6.22;;;13.00;99.90;;;;;;5072845;28;20704;-82
2022/09/21 06:42:28;;;;;;;6.13;5.10;;;13.10;99.90;;;;;;5075500;28;20237;-84
2022/09/21 06:45:17;;;;;;;5.72;4.38;;;13.20;99.90;;;;;;5079132;28;20231;-84
2022/09/21 06:48:07;;;;;;;7.32;5.32;;;13.20;99.90;;;;;;5080628;28;20235;-84
2022/09/21 06:50:58;;;;;;;6.40;4.90;;;13.30;99.90;;;;;;5076969;28;21091;-84
2022/09/21 06:53:48;;;;;;;7.43;4.47;;;13.30;99.90;;;;;;5069250;28;20219;-81
2022/09/21 06:56:36;;;;;;;8.25;4.30;;;13.10;99.90;;;;;;5077462;28;20226;-82
2022/09/21 06:59:25;;;;;;;7.82;4.60;;;13.10;99.90;;;;;;5085495;28;20224;-89
2022/09/21 07:02:13;;;;;;;5.25;4.00;;;13.00;99.90;;;;;;5084940;28;20960;-87
2022/09/21 07:05:04;;;;;;;6.70;3.70;;;13.10;99.90;;;;;;5082932;28;20860;-88
2022/09/21 07:08:00;;;;;;;9.73;4.75;;;13.30;99.90;;;;;;5087194;28;20227;-94
2022/09/21 07:10:51;;;;;;;6.03;5.22;;;13.30;99.90;;;;;;5074602;28;20305;-95
2022/09/21 07:13:41;;;;;;;6.10;3.88;;;13.40;99.90;;;;;;5089183;28;20223;-95
2022/09/21 07:16:29;;;;;;;6.05;3.83;;;13.30;99.90;;;;;;5068593;28;20695;-83
2022/09/21 07:19:18;;;;;;;5.60;4.18;;;13.30;99.90;;;;;;5079545;28;20211;-82
2022/09/21 07:22:07;;;;;;;4.30;3.78;;;13.40;99.90;;;;;;5078797;28;20306;-87
2022/09/21 07:24:56;;;;;;;7.85;3.90;;;13.40;99.90;;;;;;5081779;28;20214;-85
2022/09/21 07:27:47;;;;;;;5.82;3.45;;;13.40;99.90;;;;;;5082088;28;20291;-85
2022/09/21 07:30:37;;;;;;;6.40;3.65;;;13.50;99.90;;;;;;5077205;28;20334;-83
2022/09/21 07:33:25;;;;;;;5.93;3.30;;;13.60;99.90;;;;;;5065955;28;20254;-86
2022/09/21 07:36:16;;;;;;;4.80;3.30;;;13.60;99.90;;;;;;5080309;28;20227;-87
2022/09/21 07:39:05;;;;;;;3.60;2.70;;;13.90;99.90;;;;;;5066194;28;20223;-86
2022/09/21 07:41:53;;;;;;;4.90;3.05;;;13.70;99.90;;;;;;5080159;28;20344;-86
2022/09/21 07:44:43;;;;;;;5.28;3.92;;;13.60;99.90;;;;;;5078173;28;20223;-86
2022/09/21 07:47:32;;;;;;;6.07;3.42;;;13.70;99.90;;;;;;5076944;28;20247;-87
2022/09/21 07:50:21;;;;;;;3.42;2.95;;;13.70;99.90;;;;;;5070022;28;20219;-86
2022/09/21 07:53:09;;;;;;;4.38;3.15;;;13.70;99.90;;;;;;5087033;28;20709;-89
2022/09/21 07:56:01;;;;;;;3.90;3.08;;;13.70;99.90;;;;;;5091146;28;20242;-92
2022/09/21 07:59:07;;;;;;;3.22;2.40;;;13.80;99.90;;;;;;5077059;28;20227;-88
2022/09/21 08:01:57;;;;;;;3.58;2.63;;;14.00;99.90;;;;;;5066471;28;20233;-87
2022/09/21 08:04:46;;;;;;;3.72;2.20;;;14.70;99.90;;;;;;5074451;28;20832;-91
2022/09/21 08:07:35;;;;;;;2.67;2.00;;;14.90;99.90;;;;;;5084648;28;20215;-93
2022/09/21 08:10:25;;;;;;;2.95;1.80;;;15.10;99.90;;;;;;5084170;28;20224;-88
2022/09/21 08:13:13;;;;;;;2.83;2.05;;;14.30;99.90;;;;;;5081275;28;20273;-90
2022/09/21 08:16:02;;;;;;;4.07;1.92;;;14.60;99.90;;;;;;5083696;28;20228;-87
2022/09/21 08:18:52;;;;;;;2.70;2.00;;;15.40;99.90;;;;;;5080497;28;20246;-90
2022/09/21 08:21:42;;;;;;;2.85;1.85;;;15.30;99.90;;;;;;5075791;28;20223;-94
2022/09/21 08:24:31;;;;;;;2.78;2.15;;;15.20;99.90;;;;;;5088520;28;20250;-92
2022/09/21 08:27:21;;;;;;;2.42;1.83;;;15.20;99.90;;;;;;5066144;28;20310;-81
2022/09/21 08:30:12;;;;;;;3.58;1.90;;;15.50;99.90;;;;;;5059791;28;20231;-81
2022/09/21 08:33:02;;;;;;;3.83;1.77;;;15.50;99.90;;;;;;5064063;28;20655;-86
2022/09/21 08:35:55;;;;;;;2.78;1.83;;;15.60;99.90;;;;;;5073870;28;20307;-84
2022/09/21 08:38:44;;;;;;;4.40;1.83;;;15.60;99.90;;;;;;5073780;28;20294;-82
2022/09/21 08:41:51;;;;;;;2.42;1.55;;;15.50;99.90;;;;;;5090276;28;20312;-91
2022/09/21 08:44:43;;;;;;;5.43;2.05;;;15.40;99.90;;;;;;5089046;28;20615;-90
2022/09/21 08:47:38;;;;;;;4.10;1.83;;;15.40;99.90;;;;;;5084924;28;20251;-89
2022/09/21 08:50:32;;;;;;;2.33;1.70;;;14.80;99.90;;;;;;5087444;28;20227;-90
2022/09/21 08:53:28;;;;;;;2.97;1.70;;;14.70;99.90;;;;;;5088174;28;20219;-92
2022/09/21 08:56:17;;;;;;;2.10;1.90;;;14.60;99.90;;;;;;5087404;28;20350;-92
2022/09/21 08:59:11;;;;;;;3.50;1.90;;;14.70;99.90;;;;;;5088296;28;20230;-92
2022/09/21 09:02:13;;;;;;;3.33;1.80;;;14.80;99.90;;;;;;5084482;28;20230;-89
2022/09/21 09:05:06;;;;;;;2.95;1.80;;;15.40;99.90;;;;;;5087200;28;20215;-91
2022/09/21 09:08:11;;;;;;;1.95;1.60;;;15.50;99.90;;;;;;5104840;28;20219;-91
2022/09/21 09:11:14;;;;;;;2.70;1.60;;;15.80;99.90;;;;;;5099754;28;20785;-92
2022/09/21 09:14:20;;;;;;;2.85;1.83;;;15.80;99.90;;;;;;5087798;28;20227;-93
2022/09/21 09:17:21;;;;;;;3.67;1.83;;;15.60;99.90;;;;;;5075681;28;20300;-92
2022/09/21 09:20:15;;;;;;;1.98;1.70;;;15.80;99.90;;;;;;5075690;28;20313;-94
2022/09/21 09:23:11;;;;;;;1.95;1.73;;;15.50;99.90;;;;;;5076674;28;20705;-88
2022/09/21 09:26:07;;;;;;;2.67;1.80;;;15.60;99.90;;;;;;5073991;28;20364;-90
2022/09/21 09:29:02;;;;;;;2.22;2.00;;;15.40;99.90;;;;;;5085520;28;20227;-91
2022/09/21 09:31:53;;;;;;;4.25;2.17;;;15.40;99.90;;;;;;5080151;28;20240;-82
2022/09/21 09:34:48;;;;;;;4.25;1.80;;;15.30;99.90;;;;;;5078279;28;20820;-77
2022/09/21 09:37:42;;;;;;;3.28;1.60;;;15.50;99.90;;;;;;5080227;28;20312;-78
2022/09/21 09:40:51;;;;;;;2.53;1.60;;;15.50;99.90;;;;;;5079127;28;20761;-77
2022/09/21 09:43:54;;;;;;;2.20;1.80;;;15.70;99.90;;;;;;5080560;28;20284;-78
2022/09/21 09:46:54;;;;;;;3.05;1.67;;;15.60;99.90;;;;;;5078589;28;20235;-77
2022/09/21 09:49:56;;;;;;;3.88;1.80;;;15.20;99.90;;;;;;5079080;28;20235;-77
2022/09/21 09:52:46;;;;;;;2.70;1.70;;;15.30;99.90;;;;;;5078586;28;20322;-78
2022/09/21 09:55:38;;;;;;;2.33;1.77;;;15.60;99.90;;;;;;5080597;28;20295;-77
2022/09/21 09:58:37;;;;;;;2.25;1.70;;;15.70;99.90;;;;;;5080790;28;20334;-76
2022/09/21 10:01:41;;;;;;;2.25;1.73;;;15.60;99.90;;;;;;5076949;28;20361;-77
2022/09/21 10:04:30;;;;;;;4.85;1.73;;;15.70;99.90;;;;;;5077477;28;20222;-77
2022/09/21 10:07:19;;;;;;;5.72;2.20;;;16.00;99.90;;;;;;5079567;28;20318;-77
2022/09/21 10:10:24;;;;;;;4.63;1.80;;;16.20;99.90;;;;;;5078462;28;20241;-77
2022/09/21 10:13:20;;;;;;;4.68;2.03;;;16.40;99.90;;;;;;5080327;28;20713;-77
2022/09/21 10:16:14;;;;;;;3.75;1.67;;;16.30;99.90;;;;;;5061469;28;21032;-77
2022/09/21 10:19:04;;;;;;;2.97;2.10;;;16.20;99.90;;;;;;5074923;28;20346;-83
2022/09/21 10:21:58;;;;;;;2.28;1.70;;;16.30;99.90;;;;;;5076731;28;20268;-83
2022/09/21 10:24:50;;;;;;;2.83;1.70;;;16.30;99.90;;;;;;5078169;28;20227;-83
2022/09/21 10:27:44;;;;;;;2.58;1.90;;;16.10;99.90;;;;;;5079203;28;20231;-82
2022/09/21 10:30:35;;;;;;;3.38;1.83;;;16.30;99.90;;;;;;5078029;28;20227;-83
2022/09/21 10:33:23;;;;;;;3.20;1.85;;;16.20;99.90;;;;;;5072616;28;20270;-83
2022/09/21 10:36:29;;;;;;;3.30;1.88;;;16.10;99.90;;;;;;5078512;28;20230;-83
2022/09/21 10:39:24;;;;;;;4.47;2.20;;;15.80;99.90;;;;;;5079182;28;20230;-82
2022/09/21 10:42:16;;;;;;;3.92;2.05;;;15.90;99.90;;;;;;5076699;28;20223;-82
2022/09/21 10:45:13;;;;;;;3.80;1.77;;;16.00;99.90;;;;;;5078973;28;20271;-81
2022/09/21 10:48:09;;;;;;;3.35;1.58;;;15.90;99.90;;;;;;5077221;28;21137;-81
2022/09/21 10:50:58;;;;;;;2.10;1.65;;;16.40;99.90;;;;;;5060936;28;20223;-81
2022/09/21 10:53:49;;;;;;;1.52;1.42;;;16.00;99.90;;;;;;5062577;28;20227;-82
2022/09/21 10:56:52;;;;;;;3.03;1.50;;;16.00;99.90;;;;;;5078066;28;20215;-82
2022/09/21 10:59:41;;;;;;;4.32;1.88;;;15.30;99.90;;;;;;5063430;28;20392;-82
2022/09/21 11:02:37;;;;;;;3.25;2.00;;;15.20;99.90;;;;;;5078180;28;20243;-81
2022/09/21 11:05:32;;;;;;;4.05;2.00;;;15.30;99.90;;;;;;5076270;28;20320;-82
2022/09/21 11:08:30;;;;;;;4.03;2.00;;;15.00;99.90;;;;;;5078790;28;20250;-81
2022/09/21 11:11:35;;;;;;;2.53;1.92;;;15.30;99.90;;;;;;5078109;28;20313;-82
2022/09/21 11:14:43;;;;;;;3.33;2.28;;;15.30;99.90;;;;;;5076886;28;20230;-82
2022/09/21 11:17:37;;;;;;;4.03;2.00;;;15.60;99.90;;;;;;5075956;28;20346;-83
2022/09/21 11:20:31;;;;;;;2.58;1.80;;;15.60;99.90;;;;;;5058937;28;20330;-84
2022/09/21 11:23:35;;;;;;;8.20;2.13;;;15.60;99.90;;;;;;5077272;28;20735;-83
2022/09/21 11:26:29;;;;;;;2.38;2.00;;;15.70;99.90;;;;;;5077514;28;20283;-84
2022/09/21 11:29:24;;;;;;;2.75;1.60;;;15.90;99.90;;;;;;5063162;28;20216;-83
2022/09/21 11:32:39;;;;;;;3.28;1.58;;;16.00;99.90;;;;;;5064083;28;20223;-78
2022/09/21 11:35:40;;;;;;;3.80;1.48;;;16.10;99.90;;;;;;5065885;28;20375;-77
2022/09/21 11:38:40;;;;;;;3.25;1.55;;;16.10;99.90;;;;;;5077124;28;20235;-78
2022/09/21 11:41:45;;;;;;;1.75;1.65;;;16.10;99.90;;;;;;5080382;28;20235;-78
2022/09/21 11:44:47;;;;;;;2.10;1.55;;;15.60;99.90;;;;;;5080129;28;20256;-78
2022/09/21 11:47:50;;;;;;;3.00;1.42;;;15.70;99.90;;;;;;5081628;28;20360;-77
2022/09/21 11:50:53;;;;;;;1.70;1.17;;;15.80;99.90;;;;;;5062593;28;20361;-78
2022/09/21 11:54:03;;;;;;;2.95;1.58;;;15.70;99.90;;;;;;5080727;28;20230;-77
2022/09/21 11:56:58;;;;;;;1.92;1.40;;;16.00;99.90;;;;;;5078367;28;20247;-78
2022/09/21 12:00:08;;;;;;;2.90;1.63;;;15.80;99.90;;;;;;5079107;28;20260;-78
2022/09/21 12:03:29;;;;;;;1.67;1.30;;;16.10;99.90;;;;;;5078805;28;20408;-78
2022/09/21 12:06:34;;;;;;;3.25;1.42;;;16.30;99.90;;;;;;5079654;28;20219;-78
2022/09/21 12:09:48;;;;;;;2.42;1.30;;;16.30;99.90;;;;;;5078315;28;20216;-77
2022/09/21 12:12:43;;;;;;;2.67;0.98;;;16.40;99.90;;;;;;5066402;28;20348;-76
2022/09/21 12:15:39;;;;;;;1.65;1.27;;;16.30;99.90;;;;;;5082195;28;20657;-76
2022/09/21 12:18:35;;;;;;;1.25;1.15;;;16.30;99.90;;;;;;5079102;28;20318;-77
2022/09/21 12:21:28;;;;;;;1.13;1.00;;;16.20;99.90;;;;;;5064373;28;20223;-76
2022/09/21 12:24:20;;;;;;;3.75;1.10;;;16.30;99.90;;;;;;5076447;28;20236;-77
2022/09/21 12:27:16;;;;;;;1.20;1.10;;;16.50;99.90;;;;;;5063957;28;20216;-77
2022/09/21 12:30:12;;;;;;;2.50;1.08;;;16.60;99.90;;;;;;5080179;28;21015;-77
2022/09/21 12:33:06;;;;;;;3.63;1.35;;;16.70;99.90;;;;;;5080100;28;20322;-77
2022/09/21 12:36:00;;;;;;;2.38;0.98;;;16.80;99.90;;;;;;5080664;28;20215;-78
2022/09/21 12:38:56;;;;;;;0.80;0.80;;;16.80;99.90;;;;;;5077238;28;20215;-78
2022/09/21 12:41:52;;;;;;;2.30;0.93;;;16.50;99.90;;;;;;5079836;28;20216;-77
2022/09/21 12:44:51;;;;;;;1.55;0.93;;;16.70;99.90;;;;;;5077454;28;20312;-77
2022/09/21 12:47:51;;;;;;;1.58;0.98;;;16.50;99.90;;;;;;5080201;28;20311;-78
2022/09/21 12:50:45;;;;;;;2.22;1.00;;;16.50;99.90;;;;;;5077627;28;20314;-78
2022/09/21 12:53:37;;;;;;;1.08;0.90;;;16.60;99.90;;;;;;5081046;28;20231;-77
2022/09/21 12:56:37;;;;;;;3.05;1.90;;;16.60;99.90;;;;;;5061663;28;20303;-78
2022/09/21 12:59:35;;;;;;;1.25;0.90;;;16.80;99.90;;;;;;5077282;28;20705;-78
2022/09/21 13:02:32;;;;;;;3.53;0.90;;;16.70;99.90;;;;;;5080025;28;20727;-77
2022/09/21 13:05:35;;;;;;;1.42;1.13;;;16.50;99.90;;;;;;5078617;28;20359;-77
2022/09/21 13:08:27;;;;;;;4.70;1.50;;;16.70;99.90;;;;;;5077108;28;20248;-79
2022/09/21 13:11:20;;;;;;;2.88;1.73;;;16.70;99.90;;;;;;5078195;28;20251;-78
2022/09/21 13:14:12;;;;;;;2.53;1.40;;;16.70;99.90;;;;;;5078776;28;20216;-78
2022/09/21 13:17:03;;;;;;;2.63;1.35;;;16.80;99.90;;;;;;5079192;28;21188;-78
2022/09/21 13:20:01;;;;;;;4.68;1.15;;;16.80;99.90;;;;;;5075555;28;20314;-78
2022/09/21 13:22:59;;;;;;;4.18;1.10;;;16.70;99.90;;;;;;5079374;28;20432;-78
2022/09/21 13:25:58;;;;;;;8.07;2.05;;;16.50;99.90;;;;;;5078339;28;20216;-78
2022/09/21 13:29:26;;;;;;;3.28;1.08;;;16.40;99.90;;;;;;5068025;28;20635;-78
2022/09/21 13:32:23;;;;;;;1.80;0.80;;;16.30;99.90;;;;;;5075564;28;20778;-81
2022/09/21 13:35:51;;;;;;;2.75;0.90;;;16.00;99.90;;;;;;5075604;28;20231;-77
2022/09/21 13:39:16;;;;;;;1.58;0.95;;;16.00;99.90;;;;;;5075334;28;20218;-77
2022/09/21 13:42:38;;;;;;;2.50;1.90;;;16.10;99.90;;;;;;5077538;28;20223;-77
2022/09/21 13:45:51;;;;;;;4.15;1.40;;;16.00;99.90;;;;;;5079147;28;20258;-76
2022/09/21 13:48:40;;;;;;;1.02;0.82;;;15.90;99.90;;;;;;5078244;28;20226;-77
2022/09/21 13:51:32;;;;;;;2.08;1.00;;;15.90;99.90;;;;;;5077926;28;20327;-76
2022/09/21 13:54:25;;;;;;;2.65;1.08;;;16.00;99.90;;;;;;5078078;28;20283;-76
2022/09/21 13:57:20;;;;;;;2.15;1.00;;;16.00;99.90;;;;;;5078527;28;20230;-76
2022/09/21 14:00:43;;;;;;;1.55;0.90;;;15.90;99.90;;;;;;5078695;28;20227;-77
2022/09/21 14:03:36;;;;;;;1.98;1.00;;;15.90;99.90;;;;;;4989237;28;20242;-76
2022/09/21 14:06:31;;;;;;;1.80;1.20;;;15.90;99.90;;;;;;4988417;28;20420;-76
2022/09/21 14:09:27;;;;;;;2.05;1.38;;;15.90;99.90;;;;;;5073180;28;20255;-77
2022/09/21 14:12:21;;;;;;;3.50;1.48;;;16.00;99.90;;;;;;5079269;28;20606;-76
2022/09/21 14:15:26;;;;;;;2.25;1.45;;;16.10;99.90;;;;;;5076344;28;20335;-76
2022/09/21 14:18:22;;;;;;;2.78;1.60;;;16.10;99.90;;;;;;5079317;28;20223;-76
2022/09/21 14:21:17;;;;;;;4.93;1.60;;;16.20;99.90;;;;;;5077402;28;20342;-77
2022/09/21 14:24:20;;;;;;;5.97;1.95;;;16.20;99.90;;;;;;5076126;28;20226;-77
2022/09/21 14:27:18;;;;;;;5.07;2.25;;;16.20;99.90;;;;;;5076842;28;20794;-77
2022/09/21 14:30:18;;;;;;;2.35;2.10;;;16.20;99.90;;;;;;5063191;28;20231;-76
2022/09/21 14:33:19;;;;;;;4.18;2.00;;;16.30;99.90;;;;;;5079186;28;20223;-77
2022/09/21 14:36:12;;;;;;;4.65;1.63;;;16.30;99.90;;;;;;5062825;28;20212;-77
2022/09/21 14:39:04;;;;;;;4.53;1.90;;;16.10;99.90;;;;;;5077980;28;20292;-77
2022/09/21 14:41:56;;;;;;;3.05;1.95;;;16.00;99.90;;;;;;5077269;28;20238;-77
2022/09/21 14:44:48;;;;;;;2.22;1.80;;;15.90;99.90;;;;;;5077857;28;20310;-78
2022/09/21 14:47:52;;;;;;;1.88;1.67;;;15.90;99.90;;;;;;5075762;28;20289;-78
2022/09/21 14:50:46;;;;;;;1.85;1.60;;;15.80;99.90;;;;;;5073636;28;21117;-77
2022/09/21 14:53:46;;;;;;;3.85;1.42;;;15.70;99.90;;;;;;5078568;28;20652;-77
2022/09/21 14:56:49;;;;;;;1.73;1.40;;;15.70;99.90;;;;;;5076052;28;20269;-78
2022/09/21 14:59:57;;;;;;;3.58;1.70;;;15.80;99.90;;;;;;5061507;28;20223;-78